Terminal Aerodrome Forecast
Issued by NWS

Home | Current Version | Previous Version | Text Only | Print | Product List | Glossary On
Versions: 1 2 3 4 5 6 7 8 9 10 11 12 13 14 15 16 17 18 19 20 21 22 23 24 25 26 27 28 29 30 31 32 33 34
509
FTAK31 PAFA 271924 AAA
TAFAUN
TAF AMD
PAUN 271924Z 2719/2818 07004KT P6SM -SHRA SCT025 BKN035 OVC040
     FM272100 12008KT P6SM -SHRA SCT025 BKN035 OVC045
     FM280300 09008KT P6SM -SHRA BKN035 OVC050=

USA.gov is the U.S. government's official web portal to all federal, state and local government web resources and services.